Terminal Aerodrome Forecast
Issued by NWS

Home | Current Version | Previous Version | Text Only | Print | Product List | Glossary On
Versions: 1 2 3 4 5 6 7 8 9 10 11 12 13 14 15 16 17 18 19 20 21 22 23 24 25 26 27 28
000
FTUS43 KGRR 020500 RRA
TAFLAN
TAF
KLAN 020546Z 0206/0306 15008KT P6SM SCT100
     FM021300 15008KT 4SM -SHRA BR SCT015 OVC025
     FM021800 16008KT P6SM VCSH BKN035
     FM030300 15010KT 3SM -TSRA BR BKN025CB=

USA.gov is the U.S. government's official web portal to all federal, state and local government web resources and services.